createdAt,value
2018-09-13T00:01:47.796Z,12.53
2018-09-13T00:04:16.268Z,11.70
2018-09-13T00:06:44.810Z,11.67
2018-09-13T00:09:13.284Z,11.33
2018-09-13T00:11:41.699Z,11.83
2018-09-13T00:14:10.141Z,12.67
2018-09-13T00:16:38.624Z,11.70
2018-09-13T00:19:07.082Z,12.43
2018-09-13T00:21:35.623Z,12.87
2018-09-13T00:24:04.031Z,12.40
2018-09-13T00:26:32.487Z,12.80
2018-09-13T00:29:00.892Z,12.93
2018-09-13T00:31:29.364Z,11.17
2018-09-13T00:33:57.788Z,12.47
2018-09-13T00:36:26.265Z,12.53
2018-09-13T00:38:54.656Z,12.90
2018-09-13T00:41:23.125Z,12.67
2018-09-13T00:43:51.608Z,13.10
2018-09-13T00:46:20.188Z,12.07
2018-09-13T00:48:48.659Z,12.43
2018-09-13T00:51:17.107Z,12.00
2018-09-13T00:53:45.552Z,12.23
2018-09-13T00:56:13.965Z,12.47
2018-09-13T00:58:42.437Z,11.57
2018-09-13T01:01:10.845Z,12.20
2018-09-13T01:03:39.424Z,12.10
2018-09-13T01:06:07.824Z,12.93
2018-09-13T01:08:36.212Z,12.40
2018-09-13T01:11:04.635Z,11.80
2018-09-13T01:13:33.060Z,11.77
2018-09-13T01:16:01.568Z,12.00
2018-09-13T01:18:30.045Z,13.23
2018-09-13T01:20:58.503Z,11.23
2018-09-13T01:23:26.893Z,12.13
2018-09-13T01:25:55.362Z,11.53
2018-09-13T01:28:23.758Z,10.40
2018-09-13T01:30:52.333Z,11.70
2018-09-13T01:33:21.028Z,11.20
2018-09-13T01:35:49.497Z,10.27
2018-09-13T01:38:18.101Z,11.50
2018-09-13T01:40:46.681Z,11.37
2018-09-13T01:43:15.174Z,11.07
2018-09-13T01:45:43.702Z,10.37
2018-09-13T01:48:12.136Z,11.97
2018-09-13T01:50:40.544Z,10.43
2018-09-13T01:53:08.981Z,10.90
2018-09-13T01:55:37.508Z,10.50
2018-09-13T01:58:06.617Z,10.70
2018-09-13T02:00:34.988Z,9.60
2018-09-13T02:03:03.436Z,9.83
2018-09-13T02:05:31.799Z,9.53
2018-09-13T02:08:00.243Z,9.37
2018-09-13T02:10:28.663Z,9.43
2018-09-13T02:12:57.126Z,9.07
2018-09-13T02:15:25.626Z,9.20
2018-09-13T02:17:54.016Z,9.43
2018-09-13T02:20:22.504Z,10.03
2018-09-13T02:22:50.928Z,9.33
2018-09-13T02:25:19.443Z,9.10
2018-09-13T02:27:47.884Z,9.63
2018-09-13T02:30:16.329Z,9.90
2018-09-13T02:32:44.744Z,11.00
2018-09-13T02:35:13.208Z,9.87
2018-09-13T02:37:41.612Z,10.97
2018-09-13T02:40:10.857Z,10.13
2018-09-13T02:42:39.341Z,9.63
2018-09-13T02:45:07.767Z,10.60
2018-09-13T02:47:36.219Z,9.63
2018-09-13T02:50:04.733Z,8.73
2018-09-13T02:52:33.168Z,9.03
2018-09-13T02:55:01.694Z,9.40
2018-09-13T02:57:30.170Z,10.23
2018-09-13T02:59:58.590Z,8.53
2018-09-13T03:02:27.069Z,9.13
2018-09-13T03:04:55.500Z,8.77
2018-09-13T03:07:23.920Z,8.17
2018-09-13T03:09:52.432Z,8.63
2018-09-13T03:12:21.311Z,8.60
2018-09-13T03:14:49.784Z,8.37
2018-09-13T03:17:18.356Z,7.60
2018-09-13T03:19:46.786Z,8.00
2018-09-13T03:22:15.271Z,7.13
2018-09-13T03:24:43.677Z,7.10
2018-09-13T03:27:12.107Z,8.20
2018-09-13T03:29:40.547Z,7.37
2018-09-13T03:32:09.037Z,7.87
2018-09-13T03:34:37.584Z,8.17
2018-09-13T03:37:06.026Z,6.23
2018-09-13T03:39:34.505Z,6.80
2018-09-13T03:42:02.967Z,7.27
2018-09-13T03:44:31.257Z,6.77
2018-09-13T03:46:59.696Z,6.80
2018-09-13T03:49:28.103Z,7.37
2018-09-13T03:51:56.513Z,6.73
2018-09-13T03:54:24.899Z,6.97
2018-09-13T03:56:53.312Z,7.40
2018-09-13T03:59:21.892Z,7.23
2018-09-13T04:01:50.436Z,7.17
2018-09-13T04:04:19.016Z,6.70
2018-09-13T04:06:47.464Z,6.67
2018-09-13T04:09:16.628Z,6.40
2018-09-13T04:11:45.040Z,5.87
2018-09-13T04:14:13.436Z,7.80
2018-09-13T04:16:41.816Z,6.60
2018-09-13T04:19:10.312Z,6.10
2018-09-13T04:21:38.722Z,6.70
2018-09-13T04:24:07.264Z,6.90
2018-09-13T04:26:35.652Z,6.57
2018-09-13T04:29:04.091Z,6.30
2018-09-13T04:31:32.500Z,6.33
2018-09-13T04:34:00.977Z,7.47
2018-09-13T04:36:29.407Z,6.10
2018-09-13T04:38:57.836Z,6.30
2018-09-13T04:41:26.229Z,5.87
2018-09-13T04:43:54.639Z,6.30
2018-09-13T04:46:23.018Z,7.00
2018-09-13T04:48:51.634Z,7.07
2018-09-13T04:51:20.044Z,6.77
2018-09-13T04:53:48.436Z,7.50
2018-09-13T04:56:16.864Z,6.40
2018-09-13T04:58:45.292Z,6.53
2018-09-13T05:01:13.762Z,6.07
2018-09-13T05:03:42.217Z,6.17
2018-09-13T05:06:10.582Z,6.50
2018-09-13T05:08:39.157Z,6.20
2018-09-13T05:11:07.640Z,6.13
2018-09-13T05:13:37.084Z,6.47
2018-09-13T05:16:05.532Z,5.73
2018-09-13T05:18:33.893Z,5.80
2018-09-13T05:21:02.309Z,5.63
2018-09-13T05:23:30.885Z,5.87
2018-09-13T05:25:59.298Z,5.50
2018-09-13T05:28:27.748Z,5.40
2018-09-13T05:30:56.172Z,5.80
2018-09-13T05:33:25.976Z,5.97
2018-09-13T05:35:54.437Z,5.40
2018-09-13T05:38:22.880Z,4.50
2018-09-13T05:40:51.275Z,5.20
2018-09-13T05:43:19.828Z,4.83
2018-09-13T05:45:48.392Z,5.33
2018-09-13T05:48:16.759Z,5.40
2018-09-13T05:50:45.207Z,5.90
2018-09-13T05:53:13.723Z,5.07
2018-09-13T05:55:42.148Z,4.90
2018-09-13T05:58:10.612Z,5.37
2018-09-13T06:00:39.003Z,5.23
2018-09-13T06:03:07.418Z,5.13
2018-09-13T06:05:35.855Z,4.80
2018-09-13T06:08:04.303Z,4.60
2018-09-13T06:10:38.334Z,4.50
2018-09-13T06:13:06.784Z,4.33
2018-09-13T06:15:35.581Z,5.20
2018-09-13T06:18:04.023Z,4.63
2018-09-13T06:20:32.523Z,4.77
2018-09-13T06:23:01.055Z,4.67
2018-09-13T06:25:29.446Z,4.50
2018-09-13T06:27:57.844Z,4.30
2018-09-13T06:30:26.324Z,4.47
2018-09-13T06:32:54.872Z,4.53
2018-09-13T06:35:23.330Z,4.83
2018-09-13T06:37:51.771Z,4.60
2018-09-13T06:40:20.455Z,4.47
2018-09-13T06:42:48.868Z,4.97
2018-09-13T06:45:17.365Z,5.10
2018-09-13T06:47:46.308Z,4.70
2018-09-13T06:50:14.891Z,4.70
2018-09-13T06:52:43.273Z,5.40
2018-09-13T06:55:11.670Z,4.70
2018-09-13T06:57:40.090Z,4.93
2018-09-13T07:00:08.725Z,4.93
2018-09-13T07:02:37.178Z,7.70
2018-09-13T07:05:06.144Z,4.13
2018-09-13T07:07:34.602Z,4.77
2018-09-13T07:10:03.054Z,4.40
2018-09-13T07:12:31.464Z,4.77
2018-09-13T07:14:59.950Z,5.27
2018-09-13T07:17:28.328Z,4.70
2018-09-13T07:19:56.743Z,5.30
2018-09-13T07:22:25.080Z,4.60
2018-09-13T07:24:53.473Z,5.03
2018-09-13T07:27:21.892Z,5.87
2018-09-13T07:29:50.348Z,4.70
2018-09-13T07:32:18.881Z,5.03
2018-09-13T07:34:47.302Z,3.63
2018-09-13T07:37:15.768Z,4.00
2018-09-13T07:39:44.255Z,4.17
2018-09-13T07:42:12.746Z,5.10
2018-09-13T07:44:41.148Z,7.53
2018-09-13T07:47:09.608Z,5.70
2018-09-13T07:49:40.339Z,4.97
2018-09-13T07:52:08.883Z,5.10
2018-09-13T07:54:37.357Z,5.10
2018-09-13T07:57:05.881Z,5.60
2018-09-13T07:59:34.286Z,5.63
2018-09-13T08:02:03.215Z,5.87
2018-09-13T08:04:31.997Z,5.27
2018-09-13T08:07:00.873Z,4.93
2018-09-13T08:09:29.679Z,5.50
2018-09-13T08:11:58.104Z,7.47
2018-09-13T08:14:26.727Z,5.60
2018-09-13T08:16:55.230Z,4.87
2018-09-13T08:19:23.799Z,5.27
2018-09-13T08:21:52.314Z,4.97
2018-09-13T08:24:21.396Z,4.73
2018-09-13T08:26:49.792Z,5.10
2018-09-13T08:29:18.289Z,4.67
2018-09-13T08:31:46.660Z,6.00
2018-09-13T08:34:15.084Z,5.97
2018-09-13T08:36:43.491Z,5.37
2018-09-13T08:39:12.678Z,4.60
2018-09-13T08:41:41.648Z,5.00
2018-09-13T08:44:10.109Z,4.90
2018-09-13T08:46:38.480Z,5.70
2018-09-13T08:49:07.082Z,5.73
2018-09-13T08:51:35.496Z,5.93
2018-09-13T08:54:03.964Z,5.63
2018-09-13T08:56:32.505Z,5.70
2018-09-13T08:59:00.908Z,6.73
2018-09-13T09:01:29.288Z,6.00
2018-09-13T09:03:57.681Z,6.43
2018-09-13T09:06:26.135Z,6.57
2018-09-13T09:08:54.610Z,5.30
2018-09-13T09:11:23.043Z,5.83
2018-09-13T09:13:51.501Z,6.13
2018-09-13T09:16:20.067Z,6.57
2018-09-13T09:18:48.566Z,5.77
2018-09-13T09:21:17.074Z,6.50
2018-09-13T09:23:45.529Z,5.60
2018-09-13T09:26:13.933Z,6.60
2018-09-13T09:28:43.998Z,6.10
2018-09-13T09:31:12.431Z,5.47
2018-09-13T09:33:40.849Z,5.20
2018-09-13T09:36:09.301Z,6.07
2018-09-13T09:38:37.737Z,5.70
2018-09-13T09:41:06.193Z,5.53
2018-09-13T09:43:34.629Z,4.23
2018-09-13T09:46:03.153Z,5.43
2018-09-13T09:48:31.568Z,6.03
2018-09-13T09:50:59.916Z,5.50
2018-09-13T09:53:28.361Z,6.20
2018-09-13T09:55:56.797Z,6.07
2018-09-13T09:58:25.237Z,4.87
2018-09-13T10:00:59.228Z,5.50
2018-09-13T10:03:27.747Z,5.70
2018-09-13T10:05:56.214Z,4.90
2018-09-13T10:08:24.589Z,5.30
2018-09-13T10:10:53.028Z,6.30
2018-09-13T10:13:21.551Z,6.17
2018-09-13T10:15:55.498Z,6.00
2018-09-13T10:18:29.284Z,6.27
2018-09-13T10:21:03.093Z,5.10
2018-09-13T10:23:37.266Z,5.40
2018-09-13T10:26:11.209Z,5.97
2018-09-13T10:28:45.061Z,6.23
2018-09-13T10:31:18.811Z,5.77
2018-09-13T10:33:52.516Z,6.73
2018-09-13T10:36:26.475Z,5.77
2018-09-13T10:39:59.139Z,5.50
2018-09-13T10:42:32.781Z,5.60
2018-09-13T10:45:06.524Z,6.30
2018-09-13T10:47:42.161Z,5.33
2018-09-13T10:50:13.828Z,5.37
2018-09-13T10:52:46.440Z,4.93
2018-09-13T10:55:15.256Z,5.70
2018-09-13T10:57:44.477Z,5.40
2018-09-13T11:00:14.493Z,6.00
2018-09-13T11:02:42.957Z,4.37
2018-09-13T11:05:11.453Z,5.30
2018-09-13T11:07:39.867Z,5.43
2018-09-13T11:10:08.339Z,5.03
2018-09-13T11:13:43.046Z,5.63
2018-09-13T11:16:12.313Z,5.93
2018-09-13T11:18:41.091Z,5.77
2018-09-13T11:21:10.229Z,5.47
2018-09-13T11:23:39.027Z,5.13
2018-09-13T11:26:07.454Z,4.43
2018-09-13T11:28:37.128Z,4.40
2018-09-13T11:31:05.692Z,5.07
2018-09-13T11:33:34.849Z,5.57
2018-09-13T11:36:03.682Z,5.80
2018-09-13T11:38:32.220Z,5.77
2018-09-13T11:41:00.683Z,4.90
2018-09-13T11:43:29.476Z,5.13
2018-09-13T11:45:58.034Z,5.07
2018-09-13T11:48:26.456Z,4.70
2018-09-13T11:51:00.944Z,4.67
2018-09-13T11:53:29.370Z,5.63
2018-09-13T11:55:57.792Z,5.50
2018-09-13T11:58:26.300Z,4.50
2018-09-13T12:00:54.855Z,5.47
2018-09-13T12:03:23.269Z,5.30
2018-09-13T12:05:51.684Z,6.10
2018-09-13T12:08:20.179Z,6.13
2018-09-13T12:10:48.758Z,6.73
2018-09-13T12:13:17.189Z,7.30
2018-09-13T12:15:45.614Z,7.73
2018-09-13T12:18:14.171Z,8.00
2018-09-13T12:20:42.597Z,8.00
2018-09-13T12:23:10.984Z,8.57
2018-09-13T12:25:39.366Z,8.83
2018-09-13T12:28:07.869Z,9.50
2018-09-13T12:30:36.317Z,8.50
2018-09-13T12:33:04.754Z,8.53
2018-09-13T12:35:33.211Z,8.40
2018-09-13T12:38:01.605Z,8.33
2018-09-13T12:40:30.024Z,8.83
2018-09-13T12:42:58.447Z,9.20
2018-09-13T12:45:26.996Z,9.63
2018-09-13T12:47:55.438Z,9.23
2018-09-13T12:50:23.946Z,8.40
2018-09-13T12:52:52.539Z,8.87
2018-09-13T12:55:20.986Z,8.77
2018-09-13T12:57:49.565Z,8.47
2018-09-13T13:00:18.196Z,8.30
2018-09-13T13:02:46.612Z,7.50
2018-09-13T13:05:15.049Z,7.43
2018-09-13T13:07:43.431Z,8.30
2018-09-13T13:10:12.247Z,9.20
2018-09-13T13:12:40.681Z,10.07
2018-09-13T13:15:09.178Z,9.20
2018-09-13T13:17:37.629Z,10.10
2018-09-13T13:20:06.464Z,10.30
2018-09-13T13:22:34.868Z,9.47
2018-09-13T13:25:03.250Z,9.80
2018-09-13T13:27:31.741Z,10.73
2018-09-13T13:30:00.134Z,10.37
2018-09-13T13:32:28.567Z,9.47
2018-09-13T13:34:56.986Z,10.70
2018-09-13T13:37:25.388Z,12.77
2018-09-13T13:39:53.854Z,11.47
2018-09-13T13:42:22.261Z,11.33
2018-09-13T13:44:50.749Z,11.97
2018-09-13T13:47:19.233Z,11.13
2018-09-13T13:49:47.654Z,11.20
2018-09-13T13:52:16.240Z,10.90
2018-09-13T13:54:44.638Z,11.37
2018-09-13T13:57:13.144Z,12.00
2018-09-13T13:59:41.526Z,11.30
2018-09-13T14:02:09.912Z,9.23
2018-09-13T14:04:38.331Z,12.20
2018-09-13T14:07:06.755Z,12.10
2018-09-13T14:09:35.132Z,10.73
2018-09-13T14:12:03.558Z,11.63
2018-09-13T14:14:31.931Z,11.17
2018-09-13T14:17:00.312Z,10.70
2018-09-13T14:19:28.717Z,11.00
2018-09-13T14:21:57.185Z,11.60
2018-09-13T14:24:25.634Z,11.53
2018-09-13T14:26:54.179Z,11.13
2018-09-13T14:29:22.661Z,10.07
2018-09-13T14:31:51.148Z,11.40
2018-09-13T14:34:19.604Z,11.07
2018-09-13T14:36:47.996Z,10.40
2018-09-13T14:39:16.593Z,10.97
2018-09-13T14:41:45.009Z,11.63
2018-09-13T14:44:13.577Z,11.20
2018-09-13T14:46:42.069Z,10.93
2018-09-13T14:49:10.561Z,9.80
2018-09-13T14:51:39.048Z,11.13
2018-09-13T14:54:07.448Z,9.73
2018-09-13T14:56:35.884Z,10.50
2018-09-13T14:59:04.250Z,10.23
2018-09-13T15:01:32.676Z,10.03
2018-09-13T15:04:01.048Z,9.70
2018-09-13T15:06:29.528Z,10.13
2018-09-13T15:08:57.933Z,8.83
2018-09-13T15:11:26.361Z,10.13
2018-09-13T15:13:54.915Z,9.90
2018-09-13T15:16:23.705Z,10.87
2018-09-13T15:18:52.223Z,9.80
2018-09-13T15:21:27.267Z,9.70
2018-09-13T15:23:55.709Z,9.30
2018-09-13T15:26:24.140Z,8.80
2018-09-13T15:28:52.958Z,8.97
2018-09-13T15:31:21.404Z,9.90
2018-09-13T15:33:49.833Z,8.60
2018-09-13T15:36:18.359Z,8.40
2018-09-13T15:38:46.872Z,7.77
2018-09-13T15:41:15.455Z,8.20
2018-09-13T15:43:43.993Z,8.90
2018-09-13T15:46:12.354Z,8.33
2018-09-13T15:48:40.790Z,8.87
2018-09-13T15:51:09.176Z,8.10
2018-09-13T15:53:37.643Z,8.53
2018-09-13T15:56:06.414Z,8.53
2018-09-13T15:58:34.902Z,9.17
2018-09-13T16:01:03.633Z,9.13
2018-09-13T16:03:32.195Z,8.50
2018-09-13T16:06:00.585Z,10.30
2018-09-13T16:08:29.031Z,8.60
2018-09-13T16:10:57.513Z,7.73
2018-09-13T16:13:25.988Z,12.80
2018-09-13T16:15:54.425Z,7.43
2018-09-13T16:18:22.772Z,7.40
2018-09-13T16:20:51.251Z,6.60
2018-09-13T16:23:19.777Z,7.10
2018-09-13T16:25:48.370Z,6.97
2018-09-13T16:28:16.818Z,7.03
2018-09-13T16:30:56.214Z,6.50
2018-09-13T16:33:25.769Z,6.63
2018-09-13T16:35:55.073Z,6.83
2018-09-13T16:38:31.374Z,6.90
2018-09-13T16:41:05.657Z,8.27
2018-09-13T16:43:39.473Z,6.70
2018-09-13T16:49:15.336Z,7.20
2018-09-13T16:54:43.317Z,6.47
2018-09-13T16:57:12.021Z,6.60
2018-09-13T16:59:40.884Z,6.60
2018-09-13T17:02:09.798Z,9.57
2018-09-13T17:04:38.765Z,7.17
2018-09-13T17:07:07.624Z,7.20
2018-09-13T17:09:36.607Z,6.87
2018-09-13T17:12:05.468Z,6.07
2018-09-13T17:14:34.420Z,6.40
2018-09-13T17:17:02.833Z,7.30
2018-09-13T17:19:31.335Z,6.50
2018-09-13T17:21:59.759Z,6.60
2018-09-13T17:24:28.229Z,7.90
2018-09-13T17:26:56.708Z,7.97
2018-09-13T17:29:25.350Z,8.47
2018-09-13T17:31:53.962Z,8.00
2018-09-13T17:34:22.494Z,9.07
2018-09-13T17:36:51.255Z,7.00
2018-09-13T17:39:19.808Z,7.90
2018-09-13T17:41:48.352Z,8.20
2018-09-13T17:44:16.887Z,7.67
2018-09-13T17:46:45.429Z,7.23
2018-09-13T17:49:13.885Z,8.30
2018-09-13T17:51:42.334Z,8.13
2018-09-13T17:54:10.741Z,8.10
2018-09-13T17:56:39.261Z,8.40
2018-09-13T17:59:07.645Z,9.50
2018-09-13T18:01:36.109Z,12.03
2018-09-13T18:04:04.539Z,9.43
2018-09-13T18:06:33.927Z,9.07
2018-09-13T18:09:02.690Z,10.60
2018-09-13T18:11:31.147Z,8.17
2018-09-13T18:13:59.591Z,8.10
2018-09-13T18:16:28.099Z,7.83
2018-09-13T18:18:56.509Z,8.27
2018-09-13T18:21:25.281Z,8.30
2018-09-13T18:23:53.828Z,7.80
2018-09-13T18:26:22.477Z,7.60
2018-09-13T18:28:51.117Z,9.40
2018-09-13T18:31:21.569Z,8.47
2018-09-13T18:33:50.456Z,7.63
2018-09-13T18:36:19.052Z,8.40
2018-09-13T18:38:47.649Z,9.50
2018-09-13T18:41:16.893Z,8.00
2018-09-13T18:43:45.535Z,7.20
2018-09-13T18:46:14.144Z,7.63
2018-09-13T18:48:42.597Z,9.50
2018-09-13T18:51:11.104Z,8.07
2018-09-13T18:53:40.675Z,6.80
2018-09-13T18:56:09.422Z,6.10
2018-09-13T18:58:38.531Z,6.03
2018-09-13T19:01:07.068Z,6.03
2018-09-13T19:03:35.785Z,5.40
2018-09-13T19:06:04.672Z,6.57
2018-09-13T19:08:34.790Z,6.60
2018-09-13T19:11:04.105Z,8.33
2018-09-13T19:13:32.789Z,6.73
2018-09-13T19:16:01.781Z,5.80
2018-09-13T19:18:30.419Z,7.90
2018-09-13T19:20:59.696Z,5.30
2018-09-13T19:23:28.220Z,6.83
2018-09-13T19:25:57.132Z,5.27
2018-09-13T19:28:26.932Z,4.73
2018-09-13T19:30:55.500Z,5.00
2018-09-13T19:33:24.249Z,7.70
2018-09-13T19:35:52.720Z,4.63
2018-09-13T19:38:21.552Z,5.00
2018-09-13T19:40:50.165Z,4.00
2018-09-13T19:43:18.798Z,3.97
2018-09-13T19:45:47.426Z,3.70
2018-09-13T19:48:15.922Z,3.53
2018-09-13T19:50:44.436Z,4.20
2018-09-13T19:53:12.894Z,3.60
2018-09-13T19:55:41.403Z,4.07
2018-09-13T19:58:09.848Z,3.50
2018-09-13T20:00:38.243Z,3.10
2018-09-13T20:03:06.966Z,2.97
2018-09-13T20:05:35.559Z,3.80
2018-09-13T20:08:06.458Z,3.53
2018-09-13T20:10:34.965Z,3.30
2018-09-13T20:13:03.426Z,3.07
2018-09-13T20:15:32.174Z,3.13
2018-09-13T20:18:00.804Z,3.33
2018-09-13T20:20:29.798Z,3.33
2018-09-13T20:22:58.445Z,3.60
2018-09-13T20:25:27.148Z,3.13
2018-09-13T20:27:55.667Z,3.00
2018-09-13T20:30:24.354Z,3.03
2018-09-13T20:32:53.129Z,2.90
2018-09-13T20:35:22.091Z,2.90
2018-09-13T20:37:50.935Z,2.87
2018-09-13T20:40:19.605Z,3.00
2018-09-13T20:42:49.045Z,2.90
2018-09-13T20:45:17.594Z,2.70
2018-09-13T20:47:46.165Z,2.97
2018-09-13T20:50:14.838Z,2.43
2018-09-13T20:52:43.369Z,2.80
2018-09-13T20:55:11.841Z,3.23
2018-09-13T20:57:40.310Z,2.80
2018-09-13T21:00:09.504Z,2.70
2018-09-13T21:02:38.187Z,2.80
2018-09-13T21:05:06.756Z,3.50
2018-09-13T21:07:35.442Z,2.70
2018-09-13T21:10:03.947Z,3.20
2018-09-13T21:12:32.874Z,3.17
2018-09-13T21:15:01.594Z,2.90
2018-09-13T21:17:30.464Z,2.77
2018-09-13T21:19:59.199Z,3.43
2018-09-13T21:22:27.836Z,3.20
2018-09-13T21:24:56.836Z,2.60
2018-09-13T21:27:25.397Z,2.60
2018-09-13T21:29:54.175Z,2.57
2018-09-13T21:32:24.357Z,2.63
2018-09-13T21:34:52.934Z,3.20
2018-09-13T21:37:24.358Z,2.37
2018-09-13T21:39:53.150Z,2.50
2018-09-13T21:42:22.644Z,2.30
2018-09-13T21:44:51.567Z,2.23
2018-09-13T21:47:20.181Z,2.40
2018-09-13T21:49:48.797Z,1.93
2018-09-13T21:52:17.465Z,1.47
2018-09-13T21:54:45.951Z,1.40
2018-09-13T21:57:14.503Z,1.30
2018-09-13T21:59:43.092Z,1.43
2018-09-13T22:02:11.594Z,1.23
2018-09-13T22:04:40.107Z,1.30
2018-09-13T22:07:08.717Z,1.13
2018-09-13T22:09:37.240Z,1.47
2018-09-13T22:12:05.704Z,1.10
2018-09-13T22:14:34.881Z,1.03
2018-09-13T22:17:03.605Z,1.00
2018-09-13T22:19:32.344Z,0.97
2018-09-13T22:22:01.011Z,1.00
2018-09-13T22:24:29.656Z,1.10
2018-09-13T22:26:58.648Z,0.83
2018-09-13T22:29:27.287Z,1.10
2018-09-13T22:31:57.010Z,1.00
2018-09-13T22:34:25.697Z,1.10
2018-09-13T22:36:54.919Z,0.90
2018-09-13T22:39:23.892Z,1.00
2018-09-13T22:41:52.542Z,0.97
2018-09-13T22:44:21.804Z,1.00
2018-09-13T22:46:50.532Z,1.10
2018-09-13T22:49:19.093Z,1.00
2018-09-13T22:51:48.166Z,1.00
2018-09-13T22:54:16.811Z,0.90
2018-09-13T22:56:45.435Z,1.03
2018-09-13T22:59:14.077Z,0.97
2018-09-13T23:01:43.407Z,0.90
2018-09-13T23:04:11.927Z,0.90
2018-09-13T23:06:40.584Z,1.00
2018-09-13T23:09:10.749Z,0.90
2018-09-13T23:11:40.011Z,1.50
2018-09-13T23:14:08.612Z,1.20
2018-09-13T23:16:37.981Z,1.23
2018-09-13T23:19:06.555Z,0.97
2018-09-13T23:21:35.582Z,0.80
2018-09-13T23:24:04.156Z,0.90
2018-09-13T23:26:32.633Z,1.07
2018-09-13T23:29:01.170Z,0.83
2018-09-13T23:31:29.707Z,1.00
2018-09-13T23:33:58.190Z,1.13
2018-09-13T23:36:26.722Z,1.10
2018-09-13T23:38:55.332Z,1.10
2018-09-13T23:41:24.253Z,1.50
2018-09-13T23:43:52.748Z,1.20
2018-09-13T23:46:21.458Z,1.27
2018-09-13T23:48:50.186Z,1.40
2018-09-13T23:51:18.806Z,1.17
2018-09-13T23:53:47.372Z,1.27
2018-09-13T23:56:15.839Z,1.20
2018-09-13T23:58:44.332Z,1.20
